sensor_id;sensor_type;location;lat;lon;timestamp;P1;P2;P0
45112;PMS5003;30873;53.908;27.576;2023-05-14T00:01:54;39.1;34.7;23.5
45112;PMS5003;30873;53.908;27.576;2023-05-14T00:06:40;38;34.7;23.9
45112;PMS5003;30873;53.908;27.576;2023-05-14T00:12:06;41.8;36.4;24.4
45112;PMS5003;30873;53.908;27.576;2023-05-14T00:16:52;41.3;36.5;25.2
45112;PMS5003;30873;53.908;27.576;2023-05-14T00:21:56;40.8;36.1;24.7
45112;PMS5003;30873;53.908;27.576;2023-05-14T00:26:36;40.5;35.5;24.5
45112;PMS5003;30873;53.908;27.576;2023-05-14T00:32:06;38.9;34.3;23.4
45112;PMS5003;30873;53.908;27.576;2023-05-14T00:36:18;37.4;34;23.4
45112;PMS5003;30873;53.908;27.576;2023-05-14T00:41:48;39.8;35.4;24.1
45112;PMS5003;30873;53.908;27.576;2023-05-14T00:46:40;37.9;34.9;23.5
45112;PMS5003;30873;53.908;27.576;2023-05-14T00:51:18;38.1;34.6;23
45112;PMS5003;30873;53.908;27.576;2023-05-14T00:56:52;36.3;32.9;22.6
45112;PMS5003;30873;53.908;27.576;2023-05-14T01:01:40;34.8;31.6;22.2
45112;PMS5003;30873;53.908;27.576;2023-05-14T01:06:30;36.4;32.5;22.2
45112;PMS5003;30873;53.908;27.576;2023-05-14T01:11:56;34.8;32;22.3
45112;PMS5003;30873;53.908;27.576;2023-05-14T01:16:38;35.8;32.6;22.1
45112;PMS5003;30873;53.908;27.576;2023-05-14T01:21:41;34.4;32;21.8
45112;PMS5003;30873;53.908;27.576;2023-05-14T01:27:06;34.7;31;21.3
45112;PMS5003;30873;53.908;27.576;2023-05-14T01:32:04;35.7;32.2;21.2
45112;PMS5003;30873;53.908;27.576;2023-05-14T01:36:28;35.6;30.9;21.7
45112;PMS5003;30873;53.908;27.576;2023-05-14T01:41:42;35.6;32.8;22.2
45112;PMS5003;30873;53.908;27.576;2023-05-14T01:47:06;35.8;32.7;22.3
45112;PMS5003;30873;53.908;27.576;2023-05-14T01:52:06;34.2;31.5;21.3
45112;PMS5003;30873;53.908;27.576;2023-05-14T01:56:42;36.1;33.2;22
45112;PMS5003;30873;53.908;27.576;2023-05-14T02:01:18;33.9;30;20.9
45112;PMS5003;30873;53.908;27.576;2023-05-14T02:07:06;34;30.5;21.4
45112;PMS5003;30873;53.908;27.576;2023-05-14T02:11:56;33.6;30.1;21.8
45112;PMS5003;30873;53.908;27.576;2023-05-14T02:16:28;36;32.1;22
45112;PMS5003;30873;53.908;27.576;2023-05-14T02:21:26;35.2;31.6;21.6
45112;PMS5003;30873;53.908;27.576;2023-05-14T02:27:08;38.3;34.2;22.6
45112;PMS5003;30873;53.908;27.576;2023-05-14T02:31:18;36.9;32.3;22.2
45112;PMS5003;30873;53.908;27.576;2023-05-14T02:36:38;34.8;32.4;22.6
45112;PMS5003;30873;53.908;27.576;2023-05-14T02:42:08;37.1;33.2;22.3
45112;PMS5003;30873;53.908;27.576;2023-05-14T02:46:18;37;33.8;23.3
45112;PMS5003;30873;53.908;27.576;2023-05-14T02:51:28;38.5;34.9;23.1
45112;PMS5003;30873;53.908;27.576;2023-05-14T02:57:08;34.5;32;22.7
45112;PMS5003;30873;53.908;27.576;2023-05-14T03:01:18;36.7;33.8;22.5
45112;PMS5003;30873;53.908;27.576;2023-05-14T03:06:58;36.4;32.7;22
45112;PMS5003;30873;53.908;27.576;2023-05-14T03:11:42;37.8;34.3;22.7
45112;PMS5003;30873;53.908;27.576;2023-05-14T03:17:02;38.4;33.3;22.5
45112;PMS5003;30873;53.908;27.576;2023-05-14T03:21:52;38.2;33.1;22.7
45112;PMS5003;30873;53.908;27.576;2023-05-14T03:27:08;35.1;32.1;21.9
45112;PMS5003;30873;53.908;27.576;2023-05-14T03:31:52;35.6;31.8;21.7
45112;PMS5003;30873;53.908;27.576;2023-05-14T03:36:54;35.3;31.1;21.5
45112;PMS5003;30873;53.908;27.576;2023-05-14T03:41:44;33.5;30.6;21.2
45112;PMS5003;30873;53.908;27.576;2023-05-14T03:46:52;36;31.3;21.5
45112;PMS5003;30873;53.908;27.576;2023-05-14T03:51:44;32.8;29.6;20.3
45112;PMS5003;30873;53.908;27.576;2023-05-14T03:56:30;36.4;31.5;20.6
45112;PMS5003;30873;53.908;27.576;2023-05-14T04:01:54;32.2;29.5;20.3
45112;PMS5003;30873;53.908;27.576;2023-05-14T04:06:18;34.2;31.8;21.6
45112;PMS5003;30873;53.908;27.576;2023-05-14T04:11:54;34;30.4;21.1
45112;PMS5003;30873;53.908;27.576;2023-05-14T04:17:08;31.8;28.9;20
45112;PMS5003;30873;53.908;27.576;2023-05-14T04:22:08;31;28.1;19.8
45112;PMS5003;30873;53.908;27.576;2023-05-14T04:26:30;31.6;29.4;20.4
45112;PMS5003;30873;53.908;27.576;2023-05-14T04:31:52;32.9;29.6;19.9
45112;PMS5003;30873;53.908;27.576;2023-05-14T04:36:58;32.7;29.1;20.2
45112;PMS5003;30873;53.908;27.576;2023-05-14T04:41:18;36.3;32.5;23.1
45112;PMS5003;30873;53.908;27.576;2023-05-14T04:46:44;45.1;38.7;28
45112;PMS5003;30873;53.908;27.576;2023-05-14T04:51:52;46.8;39.7;28.9
45112;PMS5003;30873;53.908;27.576;2023-05-14T04:57:08;41.1;37;26.8
45112;PMS5003;30873;53.908;27.576;2023-05-14T05:02:08;36.6;33.3;22.9
45112;PMS5003;30873;53.908;27.576;2023-05-14T05:06:42;34.6;31.1;22.2
45112;PMS5003;30873;53.908;27.576;2023-05-14T05:12:08;32;30.3;21.7
45112;PMS5003;30873;53.908;27.576;2023-05-14T05:16:58;31.4;28.1;19.3
45112;PMS5003;30873;53.908;27.576;2023-05-14T05:21:36;28;25.3;18.2
45112;PMS5003;30873;53.908;27.576;2023-05-14T05:26:38;22.3;21.1;14.7
45112;PMS5003;30873;53.908;27.576;2023-05-14T05:32:08;20.8;18.4;12.8
45112;PMS5003;30873;53.908;27.576;2023-05-14T05:36:42;21.4;19.3;13.8
45112;PMS5003;30873;53.908;27.576;2023-05-14T05:41:38;19.8;18.3;12.7
45112;PMS5003;30873;53.908;27.576;2023-05-14T05:47:08;33.6;28.8;20.3
45112;PMS5003;30873;53.908;27.576;2023-05-14T05:51:30;19.9;18.6;13.3
45112;PMS5003;30873;53.908;27.576;2023-05-14T05:56:54;18.4;16.2;11.8
45112;PMS5003;30873;53.908;27.576;2023-05-14T06:01:40;17.8;16;12.1
45112;PMS5003;30873;53.908;27.576;2023-05-14T06:06:38;19.2;17.6;11.8
45112;PMS5003;30873;53.908;27.576;2023-05-14T06:11:56;18.8;16.5;11.9
45112;PMS5003;30873;53.908;27.576;2023-05-14T06:16:42;17.1;15.7;11.9
45112;PMS5003;30873;53.908;27.576;2023-05-14T06:21:54;15.7;14.7;11.5
45112;PMS5003;30873;53.908;27.576;2023-05-14T06:26:42;16.1;15.1;10.8
45112;PMS5003;30873;53.908;27.576;2023-05-14T06:32:08;16.5;14.6;10.7
45112;PMS5003;30873;53.908;27.576;2023-05-14T06:36:38;15.2;14.6;11.1
45112;PMS5003;30873;53.908;27.576;2023-05-14T06:42:08;14.2;13.3;9.8
45112;PMS5003;30873;53.908;27.576;2023-05-14T06:46:44;16.6;15.1;11.7
45112;PMS5003;30873;53.908;27.576;2023-05-14T06:51:52;16.3;14.7;10.7
45112;PMS5003;30873;53.908;27.576;2023-05-14T06:56:44;16;14.7;10.3
45112;PMS5003;30873;53.908;27.576;2023-05-14T07:01:18;16;14.5;10.4
45112;PMS5003;30873;53.908;27.576;2023-05-14T07:06:20;17;15.7;11.2
45112;PMS5003;30873;53.908;27.576;2023-05-14T07:11:30;15.4;14.1;9.7
45112;PMS5003;30873;53.908;27.576;2023-05-14T07:16:38;14.3;13.2;9.5
45112;PMS5003;30873;53.908;27.576;2023-05-14T07:22:06;15.3;14.2;9.4
45112;PMS5003;30873;53.908;27.576;2023-05-14T07:27:06;14.5;13.5;8.9
45112;PMS5003;30873;53.908;27.576;2023-05-14T07:31:30;14.9;13.9;9.5
45112;PMS5003;30873;53.908;27.576;2023-05-14T07:36:52;14.9;13.6;9.5
45112;PMS5003;30873;53.908;27.576;2023-05-14T07:41:56;12.3;11.5;8.5
45112;PMS5003;30873;53.908;27.576;2023-05-14T07:46:18;12.4;11.5;8.1
45112;PMS5003;30873;53.908;27.576;2023-05-14T07:51:42;12.2;11.2;8.3
45112;PMS5003;30873;53.908;27.576;2023-05-14T07:56:52;12.3;11.4;8.1
45112;PMS5003;30873;53.908;27.576;2023-05-14T08:02:06;11.8;10.5;8.2
45112;PMS5003;30873;53.908;27.576;2023-05-14T08:07:04;12.4;11;8
45112;PMS5003;30873;53.908;27.576;2023-05-14T08:11:28;13.2;12.4;9.1
45112;PMS5003;30873;53.908;27.576;2023-05-14T08:16:20;12.3;11;8.6
45112;PMS5003;30873;53.908;27.576;2023-05-14T08:21:56;12.1;10.9;8.4
45112;PMS5003;30873;53.908;27.576;2023-05-14T08:26:30;12.2;11.6;8.6
45112;PMS5003;30873;53.908;27.576;2023-05-14T08:31:38;11.5;11.2;8.6
45112;PMS5003;30873;53.908;27.576;2023-05-14T08:36:28;12;11.1;8.2
45112;PMS5003;30873;53.908;27.576;2023-05-14T08:41:18;11.8;11.3;8
45112;PMS5003;30873;53.908;27.576;2023-05-14T08:46:50;11.4;10.9;8
45112;PMS5003;30873;53.908;27.576;2023-05-14T08:52:02;11.2;10.7;8
45112;PMS5003;30873;53.908;27.576;2023-05-14T08:56:28;11.7;10.6;8.1
45112;PMS5003;30873;53.908;27.576;2023-05-14T09:02:06;11.4;10.8;8.5
45112;PMS5003;30873;53.908;27.576;2023-05-14T09:06:42;11.3;10.9;8.7
45112;PMS5003;30873;53.908;27.576;2023-05-14T09:11:18;11.5;11.3;8.6
45112;PMS5003;30873;53.908;27.576;2023-05-14T09:16:56;12;11.5;8.4
45112;PMS5003;30873;53.908;27.576;2023-05-14T09:21:40;13.8;12.2;9.3
45112;PMS5003;30873;53.908;27.576;2023-05-14T09:27:06;11.6;10.9;8.5
45112;PMS5003;30873;53.908;27.576;2023-05-14T09:31:52;12.5;11.9;8.7
45112;PMS5003;30873;53.908;27.576;2023-05-14T09:37:06;12.2;11.4;8.6
45112;PMS5003;30873;53.908;27.576;2023-05-14T09:41:38;12.1;11.5;8.4
45112;PMS5003;30873;53.908;27.576;2023-05-14T09:47:04;13;11.5;8.6
45112;PMS5003;30873;53.908;27.576;2023-05-14T09:51:28;12.2;11.8;9.3
45112;PMS5003;30873;53.908;27.576;2023-05-14T09:56:52;12.8;12.4;10
45112;PMS5003;30873;53.908;27.576;2023-05-14T10:01:18;11.1;10.8;8.4
45112;PMS5003;30873;53.908;27.576;2023-05-14T10:06:18;13.4;12.8;9.9
45112;PMS5003;30873;53.908;27.576;2023-05-14T10:11:55;11.8;11.1;8.7
45112;PMS5003;30873;53.908;27.576;2023-05-14T10:16:41;11.1;10.4;8.3
45112;PMS5003;30873;53.908;27.576;2023-05-14T10:21:30;13.1;12.3;9.4
45112;PMS5003;30873;53.908;27.576;2023-05-14T10:27:08;12.3;11.5;9
45112;PMS5003;30873;53.908;27.576;2023-05-14T10:32:08;11.3;10.8;8.6
45112;PMS5003;30873;53.908;27.576;2023-05-14T10:36:18;11.3;10.8;8.6
45112;PMS5003;30873;53.908;27.576;2023-05-14T10:41:54;12.1;11.4;8.8
45112;PMS5003;30873;53.908;27.576;2023-05-14T10:46:58;14.3;13.9;10.3
45112;PMS5003;30873;53.908;27.576;2023-05-14T10:51:18;12.1;11.4;9
45112;PMS5003;30873;53.908;27.576;2023-05-14T10:56:32;11.7;11;8.4
45112;PMS5003;30873;53.908;27.576;2023-05-14T11:01:52;11.1;10.5;8.6
45112;PMS5003;30873;53.908;27.576;2023-05-14T11:06:52;10.8;10.5;8.3
45112;PMS5003;30873;53.908;27.576;2023-05-14T11:11:58;10.7;10.1;8
45112;PMS5003;30873;53.908;27.576;2023-05-14T11:16:42;10.5;9.4;7.6
45112;PMS5003;30873;53.908;27.576;2023-05-14T11:22:08;10.3;10.2;7.8
45112;PMS5003;30873;53.908;27.576;2023-05-14T11:26:58;10.8;9.8;8
45112;PMS5003;30873;53.908;27.576;2023-05-14T11:31:58;10.8;10.4;8.3
45112;PMS5003;30873;53.908;27.576;2023-05-14T11:36:18;13.6;12.9;9.8
45112;PMS5003;30873;53.908;27.576;2023-05-14T11:42:09;10.4;10.1;8
45112;PMS5003;30873;53.908;27.576;2023-05-14T11:46:30;23.9;21.9;18.8
45112;PMS5003;30873;53.908;27.576;2023-05-14T11:51:55;10.9;10.8;8.2
45112;PMS5003;30873;53.908;27.576;2023-05-14T11:57:09;10.3;9.9;7.6
45112;PMS5003;30873;53.908;27.576;2023-05-14T12:01:18;13.8;13.8;11.2
45112;PMS5003;30873;53.908;27.576;2023-05-14T12:07:07;9.2;8.9;7.3
45112;PMS5003;30873;53.908;27.576;2023-05-14T12:12:08;9.9;9.2;6.9
45112;PMS5003;30873;53.908;27.576;2023-05-14T12:16:19;10.9;10.5;8.2
45112;PMS5003;30873;53.908;27.576;2023-05-14T12:21:59;8.7;8.4;6.8
45112;PMS5003;30873;53.908;27.576;2023-05-14T12:26:31;9.6;9.2;7.1
45112;PMS5003;30873;53.908;27.576;2023-05-14T12:31:30;12;11.3;9.2
45112;PMS5003;30873;53.908;27.576;2023-05-14T12:37:08;9.9;9.6;7.8
45112;PMS5003;30873;53.908;27.576;2023-05-14T12:42:08;9.4;9.1;7.5
45112;PMS5003;30873;53.908;27.576;2023-05-14T12:46:38;9.2;9.1;7.1
45112;PMS5003;30873;53.908;27.576;2023-05-14T12:52:08;8.7;8.4;6.7
45112;PMS5003;30873;53.908;27.576;2023-05-14T12:57:08;9.7;9.4;7.3
45112;PMS5003;30873;53.908;27.576;2023-05-14T13:02:08;21.2;20.7;17.6
45112;PMS5003;30873;53.908;27.576;2023-05-14T13:06:32;27.2;24.9;20.6
45112;PMS5003;30873;53.908;27.576;2023-05-14T13:11:30;16.2;16.1;13.9
45112;PMS5003;30873;53.908;27.576;2023-05-14T13:17:06;10.6;10.3;8.3
45112;PMS5003;30873;53.908;27.576;2023-05-14T13:21:58;9.2;8.7;6.9
45112;PMS5003;30873;53.908;27.576;2023-05-14T13:26:18;15.6;14.9;13.3
45112;PMS5003;30873;53.908;27.576;2023-05-14T13:32:08;16.9;16.8;15.3
45112;PMS5003;30873;53.908;27.576;2023-05-14T13:37:08;10.5;10.4;8.4
45112;PMS5003;30873;53.908;27.576;2023-05-14T13:41:28;9.1;9;7
45112;PMS5003;30873;53.908;27.576;2023-05-14T13:46:54;9.1;8.5;6.6
45112;PMS5003;30873;53.908;27.576;2023-05-14T13:51:58;9.1;8.7;7.2
45112;PMS5003;30873;53.908;27.576;2023-05-14T13:56:28;8.9;8.6;7
45112;PMS5003;30873;53.908;27.576;2023-05-14T14:01:18;9.7;9.7;7.5
45112;PMS5003;30873;53.908;27.576;2023-05-14T14:06:50;9.5;9.3;7.7
45112;PMS5003;30873;53.908;27.576;2023-05-14T14:12:06;9.3;8.9;7
45112;PMS5003;30873;53.908;27.576;2023-05-14T14:17:08;9.1;8.8;7
45112;PMS5003;30873;53.908;27.576;2023-05-14T14:21:42;9.2;8.8;7.1
45112;PMS5003;30873;53.908;27.576;2023-05-14T14:27:09;8.3;8.3;6.3
45112;PMS5003;30873;53.908;27.576;2023-05-14T14:31:56;9.3;8.8;6.8
45112;PMS5003;30873;53.908;27.576;2023-05-14T14:36:18;9.8;9.5;7.9
45112;PMS5003;30873;53.908;27.576;2023-05-14T14:41:36;9.9;9.3;7.4
45112;PMS5003;30873;53.908;27.576;2023-05-14T14:46:52;8.8;8.3;6.6
45112;PMS5003;30873;53.908;27.576;2023-05-14T14:51:18;9.6;8.9;6.9
45112;PMS5003;30873;53.908;27.576;2023-05-14T14:56:50;12.4;11.7;9.4
45112;PMS5003;30873;53.908;27.576;2023-05-14T15:02:06;8.7;8.7;7
45112;PMS5003;30873;53.908;27.576;2023-05-14T15:06:18;8.1;7.9;6.1
45112;PMS5003;30873;53.908;27.576;2023-05-14T15:12:06;8;8;6.2
45112;PMS5003;30873;53.908;27.576;2023-05-14T15:16:28;9.2;8.5;6.6
45112;PMS5003;30873;53.908;27.576;2023-05-14T15:21:18;8.8;8.2;6.8
45112;PMS5003;30873;53.908;27.576;2023-05-14T15:26:56;9.1;8.9;6.7
45112;PMS5003;30873;53.908;27.576;2023-05-14T15:31:40;7.9;7.8;6.3
45112;PMS5003;30873;53.908;27.576;2023-05-14T15:36:40;9.8;9.5;7.4
45112;PMS5003;30873;53.908;27.576;2023-05-14T15:41:52;8.1;7.9;6.4
45112;PMS5003;30873;53.908;27.576;2023-05-14T15:47:08;9.4;9.2;7.1
45112;PMS5003;30873;53.908;27.576;2023-05-14T15:51:38;9.2;8.8;7
45112;PMS5003;30873;53.908;27.576;2023-05-14T15:56:54;9.2;9;7.1
45112;PMS5003;30873;53.908;27.576;2023-05-14T16:02:11;12.4;11.5;8.9
45112;PMS5003;30873;53.908;27.576;2023-05-14T16:07:10;10.3;9.9;7.3
45112;PMS5003;30873;53.908;27.576;2023-05-14T16:11:28;9.4;8.8;7.2
45112;PMS5003;30873;53.908;27.576;2023-05-14T16:16:18;9.9;8.9;7.1
45112;PMS5003;30873;53.908;27.576;2023-05-14T16:22:10;9.1;8.9;7.1
45112;PMS5003;30873;53.908;27.576;2023-05-14T16:26:58;9.8;9.2;7.4
45112;PMS5003;30873;53.908;27.576;2023-05-14T16:31:18;10;9.9;7.5
45112;PMS5003;30873;53.908;27.576;2023-05-14T16:36:40;10;9.5;7.2
45112;PMS5003;30873;53.908;27.576;2023-05-14T16:42:10;10.3;10;7.4
45112;PMS5003;30873;53.908;27.576;2023-05-14T16:46:34;10.6;9.8;7.6
45112;PMS5003;30873;53.908;27.576;2023-05-14T16:51:44;10.8;10.4;8.1
45112;PMS5003;30873;53.908;27.576;2023-05-14T16:57:08;11.7;11.3;8.8
45112;PMS5003;30873;53.908;27.576;2023-05-14T17:01:30;12;11.6;9
45112;PMS5003;30873;53.908;27.576;2023-05-14T17:06:44;12.4;11.8;9.2
45112;PMS5003;30873;53.908;27.576;2023-05-14T17:11:50;11.8;11.4;8.8
45112;PMS5003;30873;53.908;27.576;2023-05-14T17:16:18;23.7;22;16.9
45112;PMS5003;30873;53.908;27.576;2023-05-14T17:21:56;11.3;10.4;8.2
45112;PMS5003;30873;53.908;27.576;2023-05-14T17:26:52;34;31;26.3
45112;PMS5003;30873;53.908;27.576;2023-05-14T17:32:10;12.9;12.5;9.7
45112;PMS5003;30873;53.908;27.576;2023-05-14T17:36:56;15.5;14.7;11
45112;PMS5003;30873;53.908;27.576;2023-05-14T17:42:10;12.6;11.6;8.5
45112;PMS5003;30873;53.908;27.576;2023-05-14T17:46:40;11.9;11.4;8.2
45112;PMS5003;30873;53.908;27.576;2023-05-14T17:52:10;12.5;11.9;9.2
45112;PMS5003;30873;53.908;27.576;2023-05-14T17:56:30;13.3;11.9;9.3
45112;PMS5003;30873;53.908;27.576;2023-05-14T18:01:54;13.3;12.5;9.2
45112;PMS5003;30873;53.908;27.576;2023-05-14T18:06:32;13.1;12.5;8.9
45112;PMS5003;30873;53.908;27.576;2023-05-14T18:11:18;14.4;13.1;9.2
45112;PMS5003;30873;53.908;27.576;2023-05-14T18:16:56;15.3;13.9;9.6
45112;PMS5003;30873;53.908;27.576;2023-05-14T18:21:42;20;18;12
45112;PMS5003;30873;53.908;27.576;2023-05-14T18:26:28;17.3;16.3;11.5
45112;PMS5003;30873;53.908;27.576;2023-05-14T18:32:10;15.3;14.4;10.1
45112;PMS5003;30873;53.908;27.576;2023-05-14T18:37:10;16.9;14.9;10.4
45112;PMS5003;30873;53.908;27.576;2023-05-14T18:41:30;15;14.5;10.3
45112;PMS5003;30873;53.908;27.576;2023-05-14T18:46:56;17.1;16.1;11.5
45112;PMS5003;30873;53.908;27.576;2023-05-14T18:51:58;17.7;16.1;11.8
45112;PMS5003;30873;53.908;27.576;2023-05-14T18:56:33;16.2;15.6;11.6
45112;PMS5003;30873;53.908;27.576;2023-05-14T19:01:18;21.4;19.6;13.7
45112;PMS5003;30873;53.908;27.576;2023-05-14T19:06:52;21.2;19.4;14.3
45112;PMS5003;30873;53.908;27.576;2023-05-14T19:12:10;18.1;16;12.2
45112;PMS5003;30873;53.908;27.576;2023-05-14T19:17:10;18.3;16.2;12.8
45112;PMS5003;30873;53.908;27.576;2023-05-14T19:21:42;18.6;17;13.1
45112;PMS5003;30873;53.908;27.576;2023-05-14T19:27:10;16.9;16.2;12.3
45112;PMS5003;30873;53.908;27.576;2023-05-14T19:31:56;17.2;15.8;11.7
45112;PMS5003;30873;53.908;27.576;2023-05-14T19:36:30;17;15.4;11.5
45112;PMS5003;30873;53.908;27.576;2023-05-14T19:41:40;18.6;16.4;11.7
45112;PMS5003;30873;53.908;27.576;2023-05-14T19:46:56;16.4;15.1;11.6
45112;PMS5003;30873;53.908;27.576;2023-05-14T19:51:18;16.8;16.2;11.8
45112;PMS5003;30873;53.908;27.576;2023-05-14T19:56:52;18.6;17.9;13.5
45112;PMS5003;30873;53.908;27.576;2023-05-14T20:02:10;20.2;18.4;13.2
45112;PMS5003;30873;53.908;27.576;2023-05-14T20:06:44;20.4;17.9;13.1
45112;PMS5003;30873;53.908;27.576;2023-05-14T20:12:08;19.1;18.2;13.2
45112;PMS5003;30873;53.908;27.576;2023-05-14T20:16:42;19.7;18.2;12.8
45112;PMS5003;30873;53.908;27.576;2023-05-14T20:21:30;19.2;18.3;13.3
45112;PMS5003;30873;53.908;27.576;2023-05-14T20:26:58;19.7;18.3;12.6
45112;PMS5003;30873;53.908;27.576;2023-05-14T20:31:52;21.1;19.9;14.2
45112;PMS5003;30873;53.908;27.576;2023-05-14T20:36:18;18.3;17.5;12.6
45112;PMS5003;30873;53.908;27.576;2023-05-14T20:41:34;20.4;19.3;14.4
45112;PMS5003;30873;53.908;27.576;2023-05-14T20:47:08;23.2;20.7;14.6
45112;PMS5003;30873;53.908;27.576;2023-05-14T20:51:40;21.1;19.4;14.1
45112;PMS5003;30873;53.908;27.576;2023-05-14T20:56:42;20.3;18.5;13.4
45112;PMS5003;30873;53.908;27.576;2023-05-14T21:02:08;20.3;18.7;14.6
45112;PMS5003;30873;53.908;27.576;2023-05-14T21:06:58;20.9;19.3;14.1
45112;PMS5003;30873;53.908;27.576;2023-05-14T21:11:56;22.9;20.8;15.5
45112;PMS5003;30873;53.908;27.576;2023-05-14T21:16:28;21.5;19.3;14.1
45112;PMS5003;30873;53.908;27.576;2023-05-14T21:22:08;22.2;20.8;14.5
45112;PMS5003;30873;53.908;27.576;2023-05-14T21:26:56;23.4;21.2;15.2
45112;PMS5003;30873;53.908;27.576;2023-05-14T21:31:30;22.3;20.4;15
45112;PMS5003;30873;53.908;27.576;2023-05-14T21:36:30;23.5;20.8;15.1
45112;PMS5003;30873;53.908;27.576;2023-05-14T21:42:10;22.8;21.5;15.1
45112;PMS5003;30873;53.908;27.576;2023-05-14T21:46:30;24.6;23.3;16.4
45112;PMS5003;30873;53.908;27.576;2023-05-14T21:51:18;25.4;22.5;15.4
45112;PMS5003;30873;53.908;27.576;2023-05-14T21:57:10;23.9;21.8;15.5
45112;PMS5003;30873;53.908;27.576;2023-05-14T22:01:18;26.7;24.5;18.1
45112;PMS5003;30873;53.908;27.576;2023-05-14T22:06:44;25.4;22.3;16.2
45112;PMS5003;30873;53.908;27.576;2023-05-14T22:11:52;26;23.8;16.8
45112;PMS5003;30873;53.908;27.576;2023-05-14T22:17:10;26.1;23.8;16.2
45112;PMS5003;30873;53.908;27.576;2023-05-14T22:22:08;24.9;23;16.2
45112;PMS5003;30873;53.908;27.576;2023-05-14T22:26:52;25.5;22.8;15.9
45112;PMS5003;30873;53.908;27.576;2023-05-14T22:32:10;26;23.5;16.4
45112;PMS5003;30873;53.908;27.576;2023-05-14T22:36:58;25.9;24.1;16.5
45112;PMS5003;30873;53.908;27.576;2023-05-14T22:41:28;25.4;22.8;16.4
45112;PMS5003;30873;53.908;27.576;2023-05-14T22:46:28;26.3;24.1;16.6
45112;PMS5003;30873;53.908;27.576;2023-05-14T22:51:56;25.3;22.8;16
45112;PMS5003;30873;53.908;27.576;2023-05-14T22:56:30;24.2;22.2;15.9
45112;PMS5003;30873;53.908;27.576;2023-05-14T23:01:54;24.8;22.8;16.3
45112;PMS5003;30873;53.908;27.576;2023-05-14T23:07:10;26.1;23.7;16.5
45112;PMS5003;30873;53.908;27.576;2023-05-14T23:11:44;26.1;24.2;17.2
45112;PMS5003;30873;53.908;27.576;2023-05-14T23:17:10;27.2;24.3;16.8
45112;PMS5003;30873;53.908;27.576;2023-05-14T23:21:18;26.5;23.5;17.1
45112;PMS5003;30873;53.908;27.576;2023-05-14T23:26:28;26.2;23.6;16.3
45112;PMS5003;30873;53.908;27.576;2023-05-14T23:31:58;27.2;24.4;16.9
45112;PMS5003;30873;53.908;27.576;2023-05-14T23:36:30;25.8;23.7;16.6
45112;PMS5003;30873;53.908;27.576;2023-05-14T23:41:18;26.8;24.9;16.9
45112;PMS5003;30873;53.908;27.576;2023-05-14T23:46:56;28.9;25.5;17.9
45112;PMS5003;30873;53.908;27.576;2023-05-14T23:52:10;28.1;25.4;17.3
45112;PMS5003;30873;53.908;27.576;2023-05-14T23:56:28;26.3;25.1;17.3
